Time;durP1;ratioP1;P1;durP2;ratioP2;P2;SDS_P1;SDS_P2;PMS_P1;PMS_P2;Temp;Humidity;BMP_temperature;BMP_pressure;BME280_temperature;BME280_humidity;BME280_pressure;Samples;Min_cycle;Max_cycle;Signal;HPM_P1;HPM_P2
2021/01/26 00:00:58;;;;;;;;;;;;;;;22.31;42.02;100378.59;2046900;29;3925;-68
2021/01/26 00:01:59;;;;;;;;;;;;;;;22.30;41.75;100374.88;2047357;28;3907;-67
2021/01/26 00:03:00;;;;;;;;;;;;;;;22.34;41.99;100377.84;2047650;28;4069;-67
2021/01/26 00:04:01;;;;;;;;;;;;;;;22.33;41.75;100376.16;2048328;28;3952;-68
2021/01/26 00:05:02;;;;;;;;;;;;;;;22.29;42.04;100378.94;2047258;28;5154;-68
2021/01/26 00:06:03;;;;;;;;;;;;;;;22.31;41.97;100384.28;2048053;28;3984;-68
2021/01/26 00:07:03;;;;;;;;;;;;;;;22.28;41.97;100388.72;2046616;28;3881;-68
2021/01/26 00:08:04;;;;;;;;;;;;;;;22.18;42.06;100378.69;2045909;28;3777;-67
2021/01/26 00:09:05;;;;;;;;;;;;;;;22.22;41.81;100391.03;2048156;28;4017;-67
2021/01/26 00:10:06;;;;;;;;;;;;;;;22.18;41.95;100383.59;2046950;28;3944;-68
2021/01/26 00:11:07;;;;;;;;;;;;;;;22.14;42.04;100394.06;2047818;28;4265;-68
2021/01/26 00:12:08;;;;;;;;;;;;;;;22.07;42.20;100391.03;2047763;28;4035;-68
2021/01/26 00:13:09;;;;;;;;;;;;;;;22.03;42.36;100390.94;2045577;28;3824;-67
2021/01/26 00:14:10;;;;;;;;;;;;;;;22.04;42.26;100386.06;2048013;29;3949;-68
2021/01/26 00:15:10;;;;;;;;;;;;;;;22.07;42.12;100391.84;2038363;29;3872;-68
2021/01/26 00:16:11;;;;;;;;;;;;;;;22.14;42.02;100394.88;2038994;29;3881;-67
2021/01/26 00:17:12;;;;;;;;;;;;;;;22.09;42.13;100400.84;2048012;28;3863;-68
2021/01/26 00:18:13;;;;;;;;;;;;;;;22.10;42.04;100395.97;2047127;28;5096;-68
2021/01/26 00:19:14;;;;;;;;;;;;;;;22.11;42.17;100401.31;2047920;28;3902;-67
2021/01/26 00:20:14;;;;;;;;;;;;;;;22.06;42.08;100397.94;2048767;28;3769;-68
2021/01/26 00:21:15;;;;;;;;;;;;;;;22.01;42.18;100405.56;2047755;28;5431;-67
2021/01/26 00:22:16;;;;;;;;;;;;;;;22.02;42.21;100400.69;2047636;28;3822;-67
2021/01/26 00:23:17;;;;;;;;;;;;;;;22.05;42.47;100399.09;2047140;28;3741;-68
2021/01/26 00:24:18;;;;;;;;;;;;;;;22.09;42.15;100398.00;2047796;28;3860;-68
2021/01/26 00:25:19;;;;;;;;;;;;;;;22.05;42.38;100401.97;2046727;28;4025;-69
2021/01/26 00:26:20;;;;;;;;;;;;;;;22.05;42.41;100410.50;2047903;28;4007;-68
2021/01/26 00:27:20;;;;;;;;;;;;;;;21.98;42.54;100405.47;2048112;28;4084;-67
2021/01/26 00:28:21;;;;;;;;;;;;;;;21.95;42.44;100404.19;2046334;28;4074;-68
2021/01/26 00:29:22;;;;;;;;;;;;;;;21.98;42.33;100412.00;2048179;29;4062;-68
2021/01/26 00:30:23;;;;;;;;;;;;;;;22.06;42.46;100409.31;2046585;28;5081;-67
2021/01/26 00:31:23;;;;;;;;;;;;;;;22.09;42.31;100402.88;2045943;28;4040;-67
2021/01/26 00:32:24;;;;;;;;;;;;;;;22.08;42.29;100410.63;2047790;29;4403;-67
2021/01/26 00:33:25;;;;;;;;;;;;;;;22.13;42.09;100413.16;2047202;28;4017;-68
2021/01/26 00:34:26;;;;;;;;;;;;;;;22.12;42.14;100411.50;2045552;28;4030;-67
2021/01/26 00:35:29;;;;;;;;;;;;;;;22.15;41.92;100415.63;2046723;28;3927;-67
2021/01/26 00:36:30;;;;;;;;;;;;;;;22.16;42.04;100403.03;2048153;28;4451;-68
2021/01/26 00:37:30;;;;;;;;;;;;;;;22.15;41.88;100418.47;2048418;28;3886;-68
2021/01/26 00:38:31;;;;;;;;;;;;;;;22.17;41.91;100416.91;2046981;28;3889;-68
2021/01/26 00:39:32;;;;;;;;;;;;;;;22.20;41.67;100416.19;2047670;28;4075;-72
2021/01/26 00:40:33;;;;;;;;;;;;;;;22.20;41.66;100416.19;2047600;28;3833;-72
2021/01/26 00:41:34;;;;;;;;;;;;;;;22.23;41.75;100411.78;2047627;28;4346;-68
2021/01/26 00:42:34;;;;;;;;;;;;;;;22.22;41.92;100416.66;2047897;28;3995;-68
2021/01/26 00:43:35;;;;;;;;;;;;;;;22.20;41.85;100419.06;2047400;28;3842;-67
2021/01/26 00:44:37;;;;;;;;;;;;;;;22.20;41.73;100421.91;2048110;29;3733;-68
2021/01/26 00:45:38;;;;;;;;;;;;;;;22.23;41.89;100417.50;2047013;28;5156;-68
2021/01/26 00:46:38;;;;;;;;;;;;;;;22.24;41.89;100422.81;2048040;28;3865;-69
2021/01/26 00:47:39;;;;;;;;;;;;;;;22.26;41.92;100421.63;2048606;29;3909;-68
2021/01/26 00:48:41;;;;;;;;;;;;;;;22.26;42.01;100418.78;2048810;28;3843;-68
2021/01/26 00:49:41;;;;;;;;;;;;;;;22.27;41.86;100420.41;2048674;28;4077;-68
2021/01/26 00:50:42;;;;;;;;;;;;;;;22.24;41.87;100424.81;2049544;28;3757;-68
2021/01/26 00:51:43;;;;;;;;;;;;;;;22.26;41.81;100430.16;2049025;28;3769;-68
2021/01/26 00:52:44;;;;;;;;;;;;;;;22.23;41.74;100429.72;2049445;28;4227;-71
2021/01/26 00:53:44;;;;;;;;;;;;;;;22.31;42.06;100432.72;2048178;28;3760;-67
2021/01/26 00:54:45;;;;;;;;;;;;;;;22.25;41.96;100423.66;2049515;28;3995;-69
2021/01/26 00:55:46;;;;;;;;;;;;;;;22.26;42.04;100433.03;2047070;28;4873;-68
2021/01/26 00:56:47;;;;;;;;;;;;;;;22.30;41.87;100433.91;2045154;28;3880;-69
2021/01/26 00:57:47;;;;;;;;;;;;;;;22.22;42.29;100425.22;2048972;28;3994;-70
2021/01/26 00:58:48;;;;;;;;;;;;;;;22.19;42.24;100433.66;2046936;28;3836;-69
2021/01/26 01:04:35;;;;;;;;;;;;;;;22.15;42.41;100430.69;2058721;23;4088;-69
2021/01/26 01:05:35;;;;;;;;;;;;;;;22.16;42.31;100437.22;2012391;29;3829;-69
2021/01/26 01:06:36;;;;;;;;;;;;;;;22.13;42.38;100433.09;2021863;29;4058;-69
2021/01/26 01:07:37;;;;;;;;;;;;;;;22.17;42.28;100433.19;2025386;29;3974;-70
2021/01/26 01:08:38;;;;;;;;;;;;;;;22.18;42.46;100434.88;2027395;29;3770;-69
2021/01/26 01:09:38;;;;;;;;;;;;;;;22.15;42.29;100430.69;2028943;29;4068;-69
2021/01/26 01:10:39;;;;;;;;;;;;;;;22.14;42.49;100437.59;2027950;29;4090;-69
2021/01/26 01:11:41;;;;;;;;;;;;;;;22.16;42.31;100431.53;2025987;29;3818;-70
2021/01/26 01:12:42;;;;;;;;;;;;;;;22.17;42.47;100433.19;2018158;29;4119;-68
2021/01/26 01:13:43;;;;;;;;;;;;;;;22.16;42.37;100437.22;2017682;29;3966;-69
2021/01/26 01:14:43;;;;;;;;;;;;;;;22.12;42.58;100437.16;2027990;29;3962;-68
2021/01/26 01:15:44;;;;;;;;;;;;;;;22.13;42.48;100435.94;2026019;29;3863;-68
2021/01/26 01:16:45;;;;;;;;;;;;;;;22.12;42.30;100440.00;2027901;29;3880;-68
2021/01/26 01:17:46;;;;;;;;;;;;;;;22.13;42.53;100438.78;2028823;29;3894;-70
2021/01/26 01:18:47;;;;;;;;;;;;;;;22.11;42.59;100441.19;2026225;29;3921;-69
2021/01/26 01:19:48;;;;;;;;;;;;;;;22.14;42.46;100439.63;2027383;29;3902;-70
2021/01/26 01:20:49;;;;;;;;;;;;;;;22.11;42.38;100435.50;2029648;29;3896;-69
2021/01/26 01:21:50;;;;;;;;;;;;;;;22.14;42.63;100440.47;2029415;29;3999;-69
2021/01/26 01:22:51;;;;;;;;;;;;;;;22.18;42.37;100440.56;2029887;29;3784;-69
2021/01/26 01:23:52;;;;;;;;;;;;;;;22.15;42.48;100436.41;2027847;29;3709;-72
2021/01/26 01:24:53;;;;;;;;;;;;;;;22.20;42.26;100443.88;2027450;29;4700;-72
2021/01/26 01:25:54;;;;;;;;;;;;;;;22.26;42.16;100442.38;2029767;29;3873;-72
2021/01/26 01:26:55;;;;;;;;;;;;;;;22.29;42.13;100435.94;2029835;29;3958;-70
2021/01/26 01:27:56;;;;;;;;;;;;;;;22.32;42.12;100440.91;2029205;29;3852;-72
2021/01/26 01:28:56;;;;;;;;;;;;;;;22.35;41.98;100439.31;2019484;29;3988;-72
2021/01/26 01:29:57;;;;;;;;;;;;;;;22.37;42.00;100446.31;2020630;29;4032;-72
2021/01/26 01:30:58;;;;;;;;;;;;;;;22.41;41.82;100437.84;2028440;29;4085;-69
2021/01/26 01:31:59;;;;;;;;;;;;;;;22.42;41.75;100436.66;2028696;29;4133;-72
2021/01/26 01:33:00;;;;;;;;;;;;;;;22.43;41.86;100441.13;2029032;29;3892;-71
2021/01/26 01:34:01;;;;;;;;;;;;;;;22.43;41.93;100447.66;2028627;29;3788;-72
2021/01/26 01:35:01;;;;;;;;;;;;;;;22.41;42.04;100440.69;2027110;29;4018;-68
2021/01/26 01:36:02;;;;;;;;;;;;;;;22.43;42.00;100446.84;2029825;29;4157;-67
2021/01/26 01:37:03;;;;;;;;;;;;;;;22.47;41.88;100442.06;2026909;29;3963;-69
2021/01/26 01:38:03;;;;;;;;;;;;;;;22.09;42.29;100440.75;2029225;29;3989;-70
2021/01/26 01:39:04;;;;;;;;;;;;;;;21.92;42.99;100441.13;2028031;29;3780;-68
2021/01/26 01:40:05;;;;;;;;;;;;;;;21.72;43.06;100446.75;2028859;29;4029;-71
2021/01/26 01:41:06;;;;;;;;;;;;;;;21.64;43.22;100449.75;2029456;29;4188;-69
2021/01/26 01:42:07;;;;;;;;;;;;;;;21.90;42.28;100446.38;2028686;29;3899;-69
2021/01/26 01:43:08;;;;;;;;;;;;;;;22.14;42.05;100445.34;2028854;29;4192;-70
2021/01/26 01:44:08;;;;;;;;;;;;;;;22.25;42.04;100443.59;2027998;29;3779;-69
2021/01/26 01:45:09;;;;;;;;;;;;;;;22.30;42.05;100443.28;2027353;29;4085;-69
2021/01/26 01:46:10;;;;;;;;;;;;;;;22.36;41.93;100441.00;2028288;29;4144;-71
2021/01/26 01:47:11;;;;;;;;;;;;;;;22.37;42.05;100445.50;2028880;29;3797;-69
2021/01/26 01:48:12;;;;;;;;;;;;;;;22.39;41.99;100445.94;2028970;29;3900;-69
2021/01/26 01:49:13;;;;;;;;;;;;;;;22.37;42.09;100437.75;2028186;29;3840;-69
2021/01/26 01:50:14;;;;;;;;;;;;;;;22.35;42.19;100442.19;2028988;29;4110;-69
2021/01/26 01:51:14;;;;;;;;;;;;;;;22.37;42.14;100445.50;2029746;29;4018;-70
2021/01/26 01:52:15;;;;;;;;;;;;;;;22.38;42.00;100435.72;2029582;29;3961;-68
2021/01/26 01:53:16;;;;;;;;;;;;;;;22.41;41.96;100441.53;2029580;29;3997;-69
2021/01/26 01:54:17;;;;;;;;;;;;;;;22.39;42.02;100443.91;2028039;29;3911;-72
2021/01/26 01:55:19;;;;;;;;;;;;;;;22.44;42.14;100437.09;2027277;29;3974;-71
2021/01/26 01:56:19;;;;;;;;;;;;;;;22.40;42.04;100439.03;2029330;29;4028;-71
2021/01/26 01:57:20;;;;;;;;;;;;;;;22.42;42.27;100436.66;2028725;29;4093;-67
2021/01/26 01:58:21;;;;;;;;;;;;;;;22.43;42.04;100441.13;2027785;29;3754;-68
2021/01/26 01:59:21;;;;;;;;;;;;;;;22.42;42.15;100437.47;2027104;29;3829;-69
2021/01/26 02:00:22;;;;;;;;;;;;;;;22.47;41.96;100430.66;2027874;29;3870;-68
2021/01/26 02:01:23;;;;;;;;;;;;;;;22.41;42.06;100432.97;2029307;29;3810;-68
2021/01/26 02:02:24;;;;;;;;;;;;;;;22.42;42.05;100434.63;2030947;29;3844;-68
2021/01/26 02:03:25;;;;;;;;;;;;;;;22.44;42.11;100440.78;2037046;29;5102;-67
2021/01/26 02:04:25;;;;;;;;;;;;;;;22.41;42.01;100438.69;2031951;29;4093;-69
2021/01/26 02:05:26;;;;;;;;;;;;;;;22.45;41.94;100430.19;2034107;29;3789;-69
2021/01/26 02:06:27;;;;;;;;;;;;;;;22.49;41.94;100438.81;2036093;29;3971;-72
2021/01/26 02:07:27;;;;;;;;;;;;;;;22.48;41.86;100432.31;2037093;29;3835;-71
2021/01/26 02:08:28;;;;;;;;;;;;;;;22.46;42.12;100446.09;2036282;29;3874;-72
2021/01/26 02:09:29;;;;;;;;;;;;;;;22.48;42.10;100440.03;2035862;29;4107;-72
2021/01/26 02:10:30;;;;;;;;;;;;;;;22.50;41.93;100440.50;2034252;29;3831;-73
2021/01/26 02:11:30;;;;;;;;;;;;;;;22.51;42.04;100439.28;2036788;29;4207;-73
2021/01/26 02:12:31;;;;;;;;;;;;;;;22.56;41.89;100444.69;2035119;29;3883;-73
2021/01/26 02:13:34;;;;;;;;;;;;;;;22.55;41.89;100446.72;2035298;29;3905;-72
2021/01/26 02:14:35;;;;;;;;;;;;;;;22.52;41.88;100436.03;2036103;29;3962;-74
2021/01/26 02:15:35;;;;;;;;;;;;;;;22.48;42.01;100440.84;2035859;29;3750;-74
2021/01/26 02:16:36;;;;;;;;;;;;;;;22.47;42.05;100442.06;2035127;29;3748;-74
2021/01/26 02:17:40;;;;;;;;;;;;;;;22.49;42.03;100439.66;2035259;29;3888;-74
2021/01/26 02:18:45;;;;;;;;;;;;;;;22.49;42.00;100451.03;2034121;29;3852;-72
2021/01/26 02:19:46;;;;;;;;;;;;;;;22.48;41.95;100446.56;2036642;29;4423;-73
2021/01/26 02:20:46;;;;;;;;;;;;;;;22.48;42.10;100445.75;2035781;29;3921;-67
2021/01/26 02:21:47;;;;;;;;;;;;;;;22.49;41.96;100450.22;2036313;29;4088;-67
2021/01/26 02:22:48;;;;;;;;;;;;;;;22.52;42.13;100450.28;2034564;29;3747;-67
2021/01/26 02:23:48;;;;;;;;;;;;;;;22.52;41.87;100449.47;2034105;29;3944;-72
2021/01/26 02:24:49;;;;;;;;;;;;;;;22.50;41.94;100449.03;2035565;29;3910;-73
2021/01/26 02:25:50;;;;;;;;;;;;;;;22.49;41.96;100451.03;2036742;29;3889;-72
2021/01/26 02:26:51;;;;;;;;;;;;;;;22.50;41.96;100451.91;2033663;29;3795;-72
2021/01/26 02:27:52;;;;;;;;;;;;;;;22.52;41.79;100456.00;2032260;29;3809;-72
2021/01/26 02:28:52;;;;;;;;;;;;;;;22.52;41.98;100450.28;2034815;29;4347;-72
2021/01/26 02:29:53;;;;;;;;;;;;;;;22.52;42.02;100455.19;2033993;29;3942;-71
2021/01/26 02:30:54;;;;;;;;;;;;;;;22.56;41.91;100454.06;2035101;29;3779;-68
2021/01/26 02:31:55;;;;;;;;;;;;;;;22.56;41.70;100451.22;2033382;29;3783;-69
2021/01/26 02:32:55;;;;;;;;;;;;;;;22.52;41.85;100452.31;2034688;29;3969;-68
2021/01/26 02:33:56;;;;;;;;;;;;;;;22.57;41.94;100449.19;2035418;29;3936;-66
2021/01/26 02:34:57;;;;;;;;;;;;;;;22.56;41.80;100451.22;2034841;29;3905;-67
2021/01/26 02:35:58;;;;;;;;;;;;;;;22.52;41.94;100453.16;2035008;29;5358;-68
2021/01/26 02:36:59;;;;;;;;;;;;;;;22.49;41.92;100447.38;2036473;29;3790;-68
2021/01/26 02:37:59;;;;;;;;;;;;;;;22.49;41.83;100451.03;2036161;29;3838;-68
2021/01/26 02:39:00;;;;;;;;;;;;;;;22.48;41.85;100451.44;2036233;29;3877;-68
2021/01/26 02:40:01;;;;;;;;;;;;;;;22.42;42.00;100451.72;2035337;29;3802;-67
2021/01/26 02:41:02;;;;;;;;;;;;;;;22.40;42.00;100450.44;2036349;29;3949;-68
2021/01/26 02:42:02;;;;;;;;;;;;;;;22.42;41.97;100448.06;2036833;29;4013;-68
2021/01/26 02:43:03;;;;;;;;;;;;;;;22.42;41.92;100460.28;2035586;29;3810;-68
2021/01/26 02:44:04;;;;;;;;;;;;;;;22.39;41.90;100454.50;2034954;29;3806;-67
2021/01/26 02:45:04;;;;;;;;;;;;;;;22.32;42.06;100449.44;2034333;29;5371;-67
2021/01/26 02:46:06;;;;;;;;;;;;;;;22.35;42.16;100464.97;2036447;29;3747;-67
2021/01/26 02:47:08;;;;;;;;;;;;;;;22.35;41.96;100453.56;2036336;29;3888;-67
2021/01/26 02:48:09;;;;;;;;;;;;;;;22.37;41.94;100454.88;2035860;29;3926;-67
2021/01/26 02:49:09;;;;;;;;;;;;;;;22.33;42.12;100456.81;2034078;29;3880;-67
2021/01/26 02:50:10;;;;;;;;;;;;;;;22.32;42.06;100455.16;2036096;29;3763;-66
2021/01/26 02:51:11;;;;;;;;;;;;;;;22.37;42.16;100459.75;2021276;29;3876;-67
2021/01/26 02:52:12;;;;;;;;;;;;;;;22.33;41.97;100462.50;2021081;29;3859;-68
2021/01/26 02:53:12;;;;;;;;;;;;;;;22.34;41.95;100460.50;2034068;29;3801;-67
2021/01/26 02:54:13;;;;;;;;;;;;;;;22.31;42.01;100459.19;2035365;29;3935;-67
2021/01/26 02:55:14;;;;;;;;;;;;;;;22.27;42.17;100455.44;2033937;29;3774;-67
2021/01/26 02:56:15;;;;;;;;;;;;;;;22.27;42.25;100457.47;2036504;29;5490;-67
2021/01/26 02:57:15;;;;;;;;;;;;;;;22.28;42.01;100456.28;2037089;29;3885;-67
2021/01/26 02:58:16;;;;;;;;;;;;;;;22.26;42.21;100455.81;2036065;29;3881;-67
2021/01/26 02:59:17;;;;;;;;;;;;;;;22.27;42.19;100458.28;2033783;29;3827;-67
2021/01/26 03:00:18;;;;;;;;;;;;;;;22.20;42.26;100446.72;2035393;29;3881;-67
2021/01/26 03:01:19;;;;;;;;;;;;;;;22.20;42.40;100458.13;2034774;29;3774;-67
2021/01/26 03:02:20;;;;;;;;;;;;;;;22.20;42.36;100453.25;2035291;29;3781;-67
2021/01/26 03:03:20;;;;;;;;;;;;;;;22.18;42.32;100458.47;2036204;29;3889;-66
2021/01/26 03:04:21;;;;;;;;;;;;;;;22.18;42.26;100457.66;2033921;29;3759;-66
2021/01/26 03:05:22;;;;;;;;;;;;;;;22.13;42.52;100457.91;2034498;29;3822;-66
2021/01/26 03:06:23;;;;;;;;;;;;;;;22.21;42.31;100452.03;2034204;29;4042;-66
2021/01/26 03:07:23;;;;;;;;;;;;;;;22.16;42.26;100452.28;2036089;29;3828;-66
2021/01/26 03:08:24;;;;;;;;;;;;;;;22.13;42.34;100455.88;2033260;29;3770;-66
2021/01/26 03:09:25;;;;;;;;;;;;;;;22.12;42.58;100459.13;2035752;29;4140;-66
2021/01/26 03:10:26;;;;;;;;;;;;;;;22.16;42.34;100457.16;2036650;29;3759;-66
2021/01/26 03:11:26;;;;;;;;;;;;;;;22.16;42.39;100455.13;2037373;29;3901;-66
2021/01/26 03:12:27;;;;;;;;;;;;;;;22.13;42.32;100463.59;2035941;29;3872;-66
2021/01/26 03:13:28;;;;;;;;;;;;;;;22.11;42.26;100464.00;2035351;29;3761;-66
2021/01/26 03:14:29;;;;;;;;;;;;;;;22.13;42.38;100463.59;2035418;29;3798;-66
2021/01/26 03:15:30;;;;;;;;;;;;;;;22.11;42.48;100469.69;2035538;29;4023;-66
2021/01/26 03:16:31;;;;;;;;;;;;;;;22.15;42.25;100459.19;2035277;29;3936;-66
2021/01/26 03:17:32;;;;;;;;;;;;;;;22.15;42.34;100462.03;2036806;29;3947;-66
2021/01/26 03:18:33;;;;;;;;;;;;;;;22.16;42.23;100466.53;2033839;29;4072;-66
2021/01/26 03:19:34;;;;;;;;;;;;;;;22.18;42.09;100461.34;2034613;29;3779;-66
2021/01/26 03:20:34;;;;;;;;;;;;;;;22.18;42.20;100469.88;2035453;29;3843;-66
2021/01/26 03:21:35;;;;;;;;;;;;;;;22.23;42.04;100463.91;2036236;29;4232;-66
2021/01/26 03:22:36;;;;;;;;;;;;;;;22.23;42.14;100466.75;2035634;29;3915;-66
2021/01/26 03:23:37;;;;;;;;;;;;;;;22.22;42.11;100462.25;2036410;29;3845;-66
2021/01/26 03:24:37;;;;;;;;;;;;;;;22.19;42.15;100465.84;2036080;29;3843;-66
2021/01/26 03:25:38;;;;;;;;;;;;;;;22.22;42.03;100467.13;2033574;29;3910;-65
2021/01/26 03:26:39;;;;;;;;;;;;;;;22.18;42.16;100464.19;2035546;29;3914;-66
2021/01/26 03:27:41;;;;;;;;;;;;;;;22.21;42.15;100454.06;2035955;29;3998;-67
2021/01/26 03:28:42;;;;;;;;;;;;;;;22.28;41.97;100456.28;2031424;29;3754;-67
2021/01/26 03:29:43;;;;;;;;;;;;;;;22.32;41.96;100462.88;2036040;29;3865;-67
2021/01/26 03:30:43;;;;;;;;;;;;;;;22.30;41.74;100463.22;2035894;29;4030;-67
2021/01/26 03:31:44;;;;;;;;;;;;;;;22.24;42.08;100462.69;2036278;29;3776;-67
2021/01/26 03:32:45;;;;;;;;;;;;;;;22.21;42.31;100463.44;2035350;29;3775;-67
2021/01/26 03:33:46;;;;;;;;;;;;;;;22.22;42.28;100462.25;2035282;29;3859;-67
2021/01/26 03:34:47;;;;;;;;;;;;;;;22.18;42.13;100466.22;2036686;29;3786;-66
2021/01/26 03:35:47;;;;;;;;;;;;;;;22.15;42.29;100461.22;2035079;29;3748;-67
2021/01/26 03:36:48;;;;;;;;;;;;;;;22.13;42.29;100467.28;2036365;29;3950;-67
2021/01/26 03:37:49;;;;;;;;;;;;;;;22.09;42.53;100460.69;2036860;29;3728;-67
2021/01/26 03:38:50;;;;;;;;;;;;;;;22.07;42.38;100465.09;2035574;29;3749;-67
2021/01/26 03:39:50;;;;;;;;;;;;;;;22.07;42.43;100468.75;2035939;29;3914;-67
2021/01/26 03:40:51;;;;;;;;;;;;;;;22.15;42.29;100470.59;2034874;29;3783;-67
2021/01/26 03:41:52;;;;;;;;;;;;;;;22.15;42.29;100470.59;2035557;29;3969;-67
2021/01/26 03:42:52;;;;;;;;;;;;;;;22.12;42.21;100467.66;2036581;29;3911;-70
2021/01/26 03:43:53;;;;;;;;;;;;;;;22.13;42.16;100472.97;2035024;29;3894;-68
2021/01/26 03:44:54;;;;;;;;;;;;;;;22.13;42.44;100472.97;2033302;29;3945;-67
2021/01/26 03:45:55;;;;;;;;;;;;;;;22.08;42.35;100478.97;2035521;28;3875;-67
2021/01/26 03:46:57;;;;;;;;;;;;;;;22.06;42.50;100477.69;2032401;29;3752;-67
2021/01/26 03:47:58;;;;;;;;;;;;;;;22.06;42.39;100475.66;2035378;29;3875;-68
2021/01/26 03:48:59;;;;;;;;;;;;;;;22.12;42.38;100471.34;2033478;29;3810;-67
2021/01/26 03:50:00;;;;;;;;;;;;;;;22.15;42.60;100476.28;2034980;29;3785;-67
2021/01/26 03:51:01;;;;;;;;;;;;;;;22.09;42.70;100476.94;2035820;29;3869;-67
2021/01/26 03:52:02;;;;;;;;;;;;;;;22.07;42.92;100479.34;2035559;29;3942;-66
2021/01/26 03:53:03;;;;;;;;;;;;;;;22.08;42.67;100473.28;2036273;29;3755;-67
2021/01/26 03:54:03;;;;;;;;;;;;;;;22.10;42.76;100468.03;2036668;29;3881;-67
2021/01/26 03:55:04;;;;;;;;;;;;;;;22.14;42.66;100470.97;2034249;29;3763;-67
2021/01/26 03:56:05;;;;;;;;;;;;;;;22.06;42.84;100474.84;2036885;29;3975;-66
2021/01/26 03:57:07;;;;;;;;;;;;;;;22.04;42.85;100472.34;2035192;29;4005;-67
2021/01/26 03:58:08;;;;;;;;;;;;;;;22.09;42.77;100474.09;2035436;29;3778;-67
2021/01/26 03:59:09;;;;;;;;;;;;;;;22.04;42.74;100472.34;2035304;29;4000;-67
2021/01/26 04:00:09;;;;;;;;;;;;;;;22.02;42.96;100471.88;2034480;29;4035;-68
2021/01/26 04:01:10;;;;;;;;;;;;;;;22.04;42.71;100474.38;2036678;29;3776;-67
2021/01/26 04:02:11;;;;;;;;;;;;;;;22.00;42.80;100475.13;2035238;29;3862;-68
2021/01/26 04:03:12;;;;;;;;;;;;;;;21.98;42.73;100473.84;2035042;29;4004;-68
2021/01/26 04:04:13;;;;;;;;;;;;;;;22.02;42.52;100478.41;2036171;29;3776;-68
2021/01/26 04:05:13;;;;;;;;;;;;;;;22.01;42.72;100476.75;2033925;29;3810;-67
2021/01/26 04:06:14;;;;;;;;;;;;;;;22.06;42.53;100472.81;2034157;29;3886;-68
2021/01/26 04:07:15;;;;;;;;;;;;;;;22.06;42.48;100475.66;2035513;29;3937;-68
2021/01/26 04:08:16;;;;;;;;;;;;;;;22.09;42.55;100477.78;2027729;29;3774;-67
2021/01/26 04:09:16;;;;;;;;;;;;;;;22.15;42.34;100472.63;2027196;29;3931;-67
2021/01/26 04:10:17;;;;;;;;;;;;;;;22.13;42.34;100472.97;2034528;29;3992;-67
2021/01/26 04:11:18;;;;;;;;;;;;;;;22.17;42.31;100476.75;2036510;29;3768;-68
2021/01/26 04:12:18;;;;;;;;;;;;;;;22.18;42.18;100474.75;2034939;29;5478;-68
2021/01/26 04:13:19;;;;;;;;;;;;;;;22.18;42.15;100472.72;2034723;29;3766;-67
2021/01/26 04:14:20;;;;;;;;;;;;;;;22.16;42.23;100472.22;2034756;29;3803;-67
2021/01/26 04:15:21;;;;;;;;;;;;;;;22.14;42.29;100471.81;2033776;29;4023;-67
2021/01/26 04:16:22;;;;;;;;;;;;;;;22.17;42.17;100471.06;2033780;29;3852;-67
2021/01/26 04:17:23;;;;;;;;;;;;;;;22.18;42.15;100469.88;2035419;29;3850;-68
2021/01/26 04:18:24;;;;;;;;;;;;;;;22.14;42.13;100471.81;2035081;29;3891;-68
2021/01/26 04:19:25;;;;;;;;;;;;;;;22.15;42.12;100467.75;2035399;29;3778;-67
2021/01/26 04:20:26;;;;;;;;;;;;;;;22.13;42.21;100472.97;2034558;29;3759;-68
2021/01/26 04:21:26;;;;;;;;;;;;;;;22.13;42.13;100483.56;2035668;29;4157;-68
2021/01/26 04:22:27;;;;;;;;;;;;;;;22.15;42.06;100469.78;2037262;29;3949;-67
2021/01/26 04:23:28;;;;;;;;;;;;;;;22.17;42.15;100476.75;2037993;29;3775;-67
2021/01/26 04:24:29;;;;;;;;;;;;;;;22.14;42.07;100470.97;2037878;29;3881;-68
2021/01/26 04:25:30;;;;;;;;;;;;;;;22.11;42.16;100466.84;2033791;29;3885;-68
2021/01/26 04:26:31;;;;;;;;;;;;;;;22.15;42.15;100467.75;2038014;29;3773;-68
2021/01/26 04:27:32;;;;;;;;;;;;;;;22.17;41.95;100464.53;2037498;29;4065;-67
2021/01/26 04:28:33;;;;;;;;;;;;;;;22.11;42.21;100468.84;2035971;29;3772;-67
2021/01/26 04:29:33;;;;;;;;;;;;;;;22.08;42.25;100464.75;2032296;29;3808;-68
2021/01/26 04:30:34;;;;;;;;;;;;;;;22.06;42.26;100478.53;2037250;29;4231;-68
2021/01/26 04:31:35;;;;;;;;;;;;;;;22.04;42.37;100469.50;2035282;29;3985;-67
2021/01/26 04:32:36;;;;;;;;;;;;;;;22.06;42.14;100475.66;2036783;29;3730;-67
2021/01/26 04:33:36;;;;;;;;;;;;;;;22.08;42.31;100466.72;2037490;29;3858;-68
2021/01/26 04:34:37;;;;;;;;;;;;;;;22.08;42.08;100472.44;2033095;29;3828;-67
2021/01/26 04:35:38;;;;;;;;;;;;;;;22.08;42.02;100473.28;2037276;29;3803;-67
2021/01/26 04:36:39;;;;;;;;;;;;;;;22.05;42.39;100476.03;2036043;29;3992;-68
2021/01/26 04:37:40;;;;;;;;;;;;;;;22.03;42.33;100476.41;2036225;29;3827;-68
2021/01/26 04:38:42;;;;;;;;;;;;;;;22.06;42.20;100472.81;2036511;29;4002;-68
2021/01/26 04:39:42;;;;;;;;;;;;;;;22.03;42.21;100479.25;2037337;29;4277;-68
2021/01/26 04:40:43;;;;;;;;;;;;;;;22.04;42.25;100474.38;2035894;29;3834;-67
2021/01/26 04:41:44;;;;;;;;;;;;;;;21.96;42.43;100482.75;2035066;29;3779;-68
2021/01/26 04:42:44;;;;;;;;;;;;;;;21.97;42.23;100475.88;2029649;29;3996;-67
2021/01/26 04:43:45;;;;;;;;;;;;;;;21.98;42.46;100473.84;2029590;29;3991;-68
2021/01/26 04:44:46;;;;;;;;;;;;;;;21.95;42.45;100475.41;2036156;29;3742;-67
2021/01/26 04:45:47;;;;;;;;;;;;;;;22.02;42.24;100483.28;2035188;29;4147;-68
2021/01/26 04:46:47;;;;;;;;;;;;;;;21.99;42.32;100486.88;2036721;29;3815;-68
2021/01/26 04:47:48;;;;;;;;;;;;;;;21.98;42.31;100482.38;2037165;29;3737;-67
2021/01/26 04:48:49;;;;;;;;;;;;;;;21.98;42.51;100482.38;2035555;29;5052;-67
2021/01/26 04:49:50;;;;;;;;;;;;;;;21.96;42.22;100481.91;2029347;29;3897;-68
2021/01/26 04:50:51;;;;;;;;;;;;;;;21.95;42.34;100475.41;2028834;29;3747;-68
2021/01/26 04:51:51;;;;;;;;;;;;;;;22.00;42.28;100480.81;2036710;29;3854;-67
2021/01/26 04:52:52;;;;;;;;;;;;;;;21.96;42.50;100479.88;2035956;29;3697;-67
2021/01/26 04:53:53;;;;;;;;;;;;;;;21.98;42.31;100477.50;2037010;29;5759;-68
2021/01/26 04:54:53;;;;;;;;;;;;;;;22.03;42.26;100484.97;2034932;29;3905;-68
2021/01/26 04:55:54;;;;;;;;;;;;;;;21.99;42.42;100484.03;2037696;29;3803;-68
2021/01/26 04:56:55;;;;;;;;;;;;;;;22.00;42.33;100480.00;2037032;29;3873;-68
2021/01/26 04:57:55;;;;;;;;;;;;;;;22.01;42.30;100482.47;2036274;29;3767;-68
2021/01/26 04:58:56;;;;;;;;;;;;;;;22.00;42.15;100474.31;2036858;29;3763;-68
2021/01/26 04:59:58;;;;;;;;;;;;;;;22.03;42.12;100479.25;2036521;29;4016;-67
2021/01/26 05:00:59;;;;;;;;;;;;;;;22.05;42.23;100481.72;2036127;29;3785;-68
2021/01/26 05:02:00;;;;;;;;;;;;;;;22.06;42.10;100481.38;2036570;29;3783;-67
2021/01/26 05:03:01;;;;;;;;;;;;;;;22.06;42.04;100480.53;2036506;29;4069;-68
2021/01/26 05:04:02;;;;;;;;;;;;;;;22.11;41.98;100472.53;2037767;29;3781;-67
2021/01/26 05:05:03;;;;;;;;;;;;;;;22.13;42.04;100470.13;2034117;29;3855;-68
2021/01/26 05:06:04;;;;;;;;;;;;;;;22.17;41.77;100479.59;2035430;29;3848;-68
2021/01/26 05:07:05;;;;;;;;;;;;;;;22.16;41.87;100475.09;2036526;29;3786;-67
2021/01/26 05:08:06;;;;;;;;;;;;;;;22.18;41.98;100472.72;2037509;29;3795;-67
2021/01/26 05:09:06;;;;;;;;;;;;;;;22.17;41.85;100473.91;2036931;29;3885;-68
2021/01/26 05:10:07;;;;;;;;;;;;;;;22.16;41.87;100480.78;2037030;29;3782;-67
2021/01/26 05:11:08;;;;;;;;;;;;;;;22.17;41.90;100476.75;2037187;29;3769;-68
2021/01/26 05:12:09;;;;;;;;;;;;;;;22.19;41.77;100479.25;2035332;29;3880;-68
2021/01/26 05:13:09;;;;;;;;;;;;;;;22.23;41.73;100481.00;2036207;29;3845;-68
2021/01/26 05:14:10;;;;;;;;;;;;;;;22.22;41.74;100482.22;2036728;29;3920;-68
2021/01/26 05:15:11;;;;;;;;;;;;;;;22.22;41.83;100473.66;2035264;29;3900;-68
2021/01/26 05:16:12;;;;;;;;;;;;;;;22.20;41.93;100484.59;2037104;29;3769;-68
2021/01/26 05:17:12;;;;;;;;;;;;;;;22.20;41.88;100478.91;2037511;29;4194;-68
2021/01/26 05:18:13;;;;;;;;;;;;;;;22.22;41.73;100476.50;2036669;29;4032;-68
2021/01/26 05:19:14;;;;;;;;;;;;;;;22.21;41.84;100471.16;2036273;29;3978;-68
2021/01/26 05:20:15;;;;;;;;;;;;;;;22.17;41.92;100479.59;2037141;29;3832;-68
2021/01/26 05:21:15;;;;;;;;;;;;;;;22.15;41.80;100475.47;2035742;29;5312;-68
2021/01/26 05:22:16;;;;;;;;;;;;;;;22.16;42.03;100479.97;2036767;29;3763;-68